Time;durP1;ratioP1;P1;durP2;ratioP2;P2;SDS_P1;SDS_P2;PMS_P1;PMS_P2;Temp;Humidity;BMP_temperature;BMP_pressure;BME280_temperature;BME280_humidity;BME280_pressure;Samples;Min_cycle;Max_cycle;Signal;HPM_P1;HPM_P2
2022/09/17 00:02:24;;;;;;;2.92;0.93;;;;;;;12.39;100.00;99661.41;5179616;28;20037;-78
2022/09/17 00:04:54;;;;;;;4.07;1.08;;;;;;;12.52;100.00;99664.16;5172044;28;20052;-77
2022/09/17 00:07:25;;;;;;;2.05;0.77;;;;;;;12.42;100.00;99658.59;5172212;28;20085;-78
2022/09/17 00:09:55;;;;;;;3.95;0.80;;;;;;;12.32;100.00;99651.34;5173075;28;20044;-77
2022/09/17 00:12:25;;;;;;;3.42;1.00;;;;;;;12.34;100.00;99654.72;5183747;28;20021;-77
2022/09/17 00:14:56;;;;;;;3.55;1.13;;;;;;;12.38;100.00;99657.09;5169057;28;20034;-78
2022/09/17 00:17:26;;;;;;;2.38;0.85;;;;;;;12.44;100.00;99669.84;5175056;28;20022;-77
2022/09/17 00:19:56;;;;;;;4.38;1.02;;;;;;;12.46;100.00;99662.72;5178855;28;20022;-78
2022/09/17 00:22:27;;;;;;;9.02;1.40;;;;;;;12.57;100.00;99662.09;5180181;28;20041;-77
2022/09/17 00:24:57;;;;;;;4.03;1.15;;;;;;;12.50;100.00;99668.66;5176775;28;20285;-77
2022/09/17 00:27:27;;;;;;;3.47;1.10;;;;;;;12.65;100.00;99665.13;5173192;28;20026;-77
2022/09/17 00:29:57;;;;;;;4.35;1.33;;;;;;;12.61;100.00;99661.00;5172432;28;20432;-78
2022/09/17 00:32:28;;;;;;;7.05;1.70;;;;;;;12.64;100.00;99659.03;5177899;28;20210;-77
2022/09/17 00:34:59;;;;;;;5.32;1.40;;;;;;;12.49;100.00;99659.09;5175642;28;20025;-77
2022/09/17 00:37:29;;;;;;;3.90;1.35;;;;;;;12.54;100.00;99659.66;5171108;28;20057;-76
2022/09/17 00:39:59;;;;;;;5.95;1.88;;;;;;;12.51;100.00;99665.94;5188909;22;20042;-75
2022/09/17 00:42:29;;;;;;;5.43;1.85;;;;;;;12.54;100.00;99671.00;5155321;28;20489;-72
2022/09/17 00:45:00;;;;;;;5.28;2.00;;;;;;;12.60;100.00;99662.78;5168913;28;20022;-73
2022/09/17 00:47:37;;;;;;;5.07;2.00;;;;;;;12.55;100.00;99662.22;5170847;28;20253;-72
2022/09/17 00:50:16;;;;;;;4.50;1.88;;;;;;;12.65;100.00;99654.66;5171435;28;20399;-73
2022/09/17 00:52:51;;;;;;;4.30;1.70;;;;;;;12.66;100.00;99656.34;5168904;28;20109;-71
2022/09/17 00:55:27;;;;;;;5.53;1.88;;;;;;;12.56;100.00;99649.94;5167551;28;20018;-73
2022/09/17 00:58:01;;;;;;;5.03;1.80;;;;;;;12.58;100.00;99650.69;5165835;28;20080;-72
2022/09/17 01:00:31;;;;;;;8.07;1.83;;;;;;;12.65;100.00;99655.47;5171703;28;20033;-73
2022/09/17 01:03:02;;;;;;;3.60;1.83;;;;;;;12.57;100.00;99665.59;5166329;28;20059;-73
2022/09/17 01:05:45;;;;;;;5.97;1.95;;;;;;;12.64;100.00;99660.84;5169909;28;20029;-73
2022/09/17 01:08:33;;;;;;;4.88;1.70;;;;;;;12.66;100.00;99661.59;5169477;28;20300;-73
2022/09/17 01:11:13;;;;;;;5.57;1.92;;;;;;;12.55;100.00;99670.06;5168248;28;20040;-73
2022/09/17 01:14:04;;;;;;;7.10;1.35;;;;;;;12.65;100.00;99662.53;5169141;28;20112;-73
2022/09/17 01:16:58;;;;;;;7.45;1.50;;;;;;;12.70;100.00;99673.56;5168316;28;20041;-70
2022/09/17 01:19:47;;;;;;;6.13;1.45;;;;;;;12.53;100.00;99664.09;5167851;28;20089;-73
2022/09/17 01:22:59;;;;;;;6.68;1.55;;;;;;;12.59;100.00;99668.97;5170378;28;20061;-70
2022/09/17 01:25:48;;;;;;;7.35;1.60;;;;;;;12.58;100.00;99669.88;5168163;28;20030;-72
2022/09/17 01:28:42;;;;;;;7.57;1.50;;;;;;;12.62;100.00;99666.16;5167572;28;20033;-71
2022/09/17 01:31:37;;;;;;;6.22;1.48;;;;;;;12.61;100.00;99671.50;5168992;28;20520;-72
2022/09/17 01:34:27;;;;;;;11.30;1.75;;;;;;;12.62;100.00;99673.19;5168890;28;20109;-73
2022/09/17 01:37:02;;;;;;;8.93;1.52;;;;;;;12.64;100.00;99674.78;5169890;28;20110;-73
2022/09/17 01:40:00;;;;;;;8.77;1.60;;;;;;;12.66;100.00;99685.19;5167289;28;20029;-73
2022/09/17 01:42:50;;;;;;;8.50;1.70;;;;;;;12.61;100.00;99688.06;5163425;28;20047;-73
2022/09/17 01:45:23;;;;;;;10.15;1.50;;;;;;;12.67;100.00;99687.69;5170405;28;20514;-74
2022/09/17 01:47:59;;;;;;;10.68;1.58;;;;;;;12.57;100.00;99691.78;5167694;28;20030;-73
2022/09/17 01:50:39;;;;;;;10.45;1.90;;;;;;;12.59;100.00;99700.41;5169810;28;20026;-73
2022/09/17 01:53:11;;;;;;;13.40;2.42;;;;;;;12.59;100.00;99700.41;5169623;28;20475;-73
2022/09/17 01:55:45;;;;;;;8.05;1.90;;;;;;;12.54;100.00;99704.22;5168024;28;20377;-73
2022/09/17 01:58:23;;;;;;;12.30;2.08;;;;;;;12.59;100.00;99703.03;5167448;28;20056;-73
2022/09/17 02:00:58;;;;;;;12.52;2.80;;;;;;;12.51;100.00;99709.66;5171079;28;20033;-73
2022/09/17 02:03:37;;;;;;;12.98;2.33;;;;;;;12.57;100.00;99704.03;5170020;28;20034;-73
2022/09/17 02:06:16;;;;;;;17.67;3.08;;;;;;;12.47;100.00;99713.38;5170091;28;20026;-73
2022/09/17 02:09:38;;;;;;;15.68;3.05;;;;;;;12.54;100.00;99720.81;5168819;28;20101;-73
2022/09/17 02:12:24;;;;;;;14.77;3.45;;;;;;;12.50;100.00;99715.81;5167500;28;20546;-74
2022/09/17 02:14:57;;;;;;;15.52;2.65;;;;;;;12.50;100.00;99719.25;5167225;28;20792;-73
2022/09/17 02:17:33;;;;;;;11.80;2.45;;;;;;;12.48;100.00;99726.38;5164760;28;20097;-73
2022/09/17 02:20:04;;;;;;;15.27;2.90;;;;;;;12.54;100.00;99725.19;5171552;28;20462;-74
2022/09/17 02:22:41;;;;;;;12.25;2.30;;;;;;;12.60;100.00;99733.56;5167600;28;20030;-74
2022/09/17 02:25:25;;;;;;;15.70;2.80;;;;;;;12.49;100.00;99730.69;5168982;28;20030;-73
2022/09/17 02:28:07;;;;;;;11.98;2.10;;;;;;;12.51;100.00;99733.22;5169867;28;20519;-73
2022/09/17 02:30:38;;;;;;;18.70;2.83;;;;;;;12.56;100.00;99732.03;5168008;28;20112;-74
2022/09/17 02:33:12;;;;;;;11.65;2.33;;;;;;;12.50;100.00;99723.69;5172036;28;20053;-73
2022/09/17 02:35:43;;;;;;;19.88;3.35;;;;;;;12.36;100.00;99734.94;5169129;28;20033;-74
2022/09/17 02:38:21;;;;;;;11.43;2.15;;;;;;;12.46;100.00;99733.47;5167055;28;20519;-74
2022/09/17 02:41:07;;;;;;;13.20;2.30;;;;;;;12.50;100.00;99740.22;5168364;28;20480;-73
2022/09/17 02:44:07;;;;;;;13.75;2.28;;;;;;;12.42;100.00;99736.34;5167927;28;20027;-74
2022/09/17 02:46:56;;;;;;;13.05;2.38;;;;;;;12.44;100.00;99734.53;5152855;28;20041;-74
2022/09/17 02:49:42;;;;;;;17.08;2.50;;;;;;;12.45;100.00;99747.53;5170044;28;20431;-74
2022/09/17 02:52:30;;;;;;;19.70;2.67;;;;;;;12.54;100.00;99744.41;5167206;28;20170;-73
2022/09/17 02:55:21;;;;;;;19.40;3.35;;;;;;;12.32;100.00;99743.88;5166996;28;20022;-73
2022/09/17 02:58:15;;;;;;;17.50;2.58;;;;;;;12.40;100.00;99753.94;5166102;28;20030;-74
2022/09/17 03:00:47;;;;;;;15.35;2.70;;;;;;;12.42;100.00;99742.47;5167852;28;20054;-73
2022/09/17 03:03:25;;;;;;;15.02;2.65;;;;;;;12.44;100.00;99752.88;5169124;28;20042;-74
2022/09/17 03:05:56;;;;;;;12.68;2.45;;;;;;;12.46;100.00;99751.00;5170307;28;20026;-73
2022/09/17 03:08:31;;;;;;;17.48;3.03;;;;;;;12.47;100.00;99740.41;5164838;28;20391;-73
2022/09/17 03:11:03;;;;;;;16.17;2.80;;;;;;;12.32;100.00;99743.06;5167979;28;20467;-74
2022/09/17 03:13:35;;;;;;;18.20;3.08;;;;;;;12.33;100.00;99745.56;5170061;28;20062;-74
2022/09/17 03:16:05;;;;;;;15.82;2.40;;;;;;;12.34;100.00;99741.19;5167071;28;20523;-73
2022/09/17 03:18:36;;;;;;;15.68;3.10;;;;;;;12.38;100.00;99742.72;5167881;28;20108;-73
2022/09/17 03:21:06;;;;;;;22.00;4.07;;;;;;;12.36;100.00;99750.66;5167022;28;20064;-74
2022/09/17 03:23:36;;;;;;;15.50;3.05;;;;;;;12.38;100.00;99747.94;5166848;28;20077;-74
2022/09/17 03:26:07;;;;;;;19.95;3.35;;;;;;;12.26;100.00;99748.66;5168724;28;20061;-73
2022/09/17 03:28:37;;;;;;;18.98;3.38;;;;;;;12.25;100.00;99747.78;5167553;28;20104;-74
2022/09/17 03:31:07;;;;;;;19.50;3.53;;;;;;;12.30;100.00;99751.00;5172855;28;20101;-73
2022/09/17 03:33:38;;;;;;;13.38;2.92;;;;;;;12.33;100.00;99755.22;5174354;28;20486;-74
2022/09/17 03:36:08;;;;;;;17.58;3.55;;;;;;;12.33;100.00;99761.31;5172059;28;20029;-73
2022/09/17 03:38:38;;;;;;;17.52;3.15;;;;;;;12.43;100.00;99756.41;5170256;28;20026;-74
2022/09/17 03:41:10;;;;;;;24.83;3.92;;;;;;;12.22;100.00;99758.44;5172143;28;20030;-74
2022/09/17 03:43:40;;;;;;;15.55;3.15;;;;;;;12.27;100.00;99751.16;5171727;28;20033;-74
2022/09/17 03:46:10;;;;;;;14.63;3.33;;;;;;;12.37;100.00;99759.38;5177136;28;20108;-71
2022/09/17 03:48:41;;;;;;;17.67;3.33;;;;;;;12.38;100.00;99772.41;5172782;28;20030;-74
2022/09/17 03:51:11;;;;;;;13.60;2.88;;;;;;;12.28;100.00;99758.09;5170386;28;20026;-72
2022/09/17 03:53:42;;;;;;;13.98;3.28;;;;;;;12.24;100.00;99766.22;5180198;28;20025;-74
2022/09/17 03:56:13;;;;;;;16.13;2.80;;;;;;;12.29;100.00;99765.03;5171142;28;20049;-73
2022/09/17 03:58:43;;;;;;;20.50;3.47;;;;;;;12.25;100.00;99774.00;5170491;28;20022;-73
2022/09/17 04:01:14;;;;;;;13.73;2.55;;;;;;;12.13;100.00;99774.66;5171019;28;20388;-73
2022/09/17 04:03:44;;;;;;;16.98;3.00;;;;;;;12.21;100.00;99772.47;5170792;28;20050;-74
2022/09/17 04:06:15;;;;;;;20.02;3.47;;;;;;;12.21;100.00;99784.72;5171067;28;20030;-74
2022/09/17 04:08:45;;;;;;;18.75;3.47;;;;;;;12.29;100.00;99779.91;5170869;28;20026;-74
2022/09/17 04:11:16;;;;;;;17.95;3.50;;;;;;;12.25;100.00;99771.38;5170206;28;20030;-74
2022/09/17 04:13:46;;;;;;;16.67;2.95;;;;;;;12.19;100.00;99786.56;5170738;28;20622;-74
2022/09/17 04:16:16;;;;;;;13.57;3.05;;;;;;;12.31;100.00;99784.13;5171572;28;20065;-73
2022/09/17 04:18:46;;;;;;;15.35;3.05;;;;;;;12.14;100.00;99780.75;5168012;28;20034;-73
2022/09/17 04:21:17;;;;;;;16.60;2.70;;;;;;;12.20;100.00;99786.50;5173903;28;20038;-74
2022/09/17 04:23:47;;;;;;;17.13;2.47;;;;;;;12.20;100.00;99789.13;5169022;28;20716;-74
2022/09/17 04:26:17;;;;;;;18.27;2.70;;;;;;;12.14;100.00;99786.00;5171537;28;20211;-73
2022/09/17 04:28:48;;;;;;;18.70;2.80;;;;;;;12.05;100.00;99791.72;5169374;28;20037;-74
2022/09/17 04:31:19;;;;;;;17.25;3.00;;;;;;;12.03;100.00;99797.06;5172471;28;20037;-74
2022/09/17 04:33:50;;;;;;;17.70;2.63;;;;;;;12.08;100.00;99797.63;5173341;28;20097;-74
2022/09/17 04:36:20;;;;;;;11.43;2.13;;;;;;;12.09;100.00;99801.94;5168972;28;20053;-74
2022/09/17 04:38:50;;;;;;;19.45;2.50;;;;;;;12.17;100.00;99804.16;5169589;28;20466;-74
2022/09/17 04:41:21;;;;;;;15.73;2.55;;;;;;;11.98;100.00;99806.06;5169743;28;20034;-74
2022/09/17 04:43:51;;;;;;;15.88;2.80;;;;;;;12.03;100.00;99807.53;5166555;28;20061;-74
2022/09/17 04:46:21;;;;;;;10.68;2.72;;;;;;;11.86;100.00;99802.34;5169058;28;20091;-74
2022/09/17 04:48:52;;;;;;;16.10;2.58;;;;;;;12.06;100.00;99809.13;5168224;28;20197;-74
2022/09/17 04:51:22;;;;;;;15.30;2.17;;;;;;;11.85;100.00;99813.75;5174059;28;20031;-74
2022/09/17 04:53:52;;;;;;;11.50;2.28;;;;;;;11.97;100.00;99805.22;5169505;28;20076;-74
2022/09/17 04:56:23;;;;;;;16.40;2.17;;;;;;;12.05;100.00;99807.44;5170080;28;20022;-74
2022/09/17 04:58:53;;;;;;;16.80;3.05;;;;;;;11.93;100.00;99811.56;5166534;28;20193;-74
2022/09/17 05:01:23;;;;;;;13.68;2.40;;;;;;;11.89;100.00;99806.53;5171797;28;20483;-74
2022/09/17 05:03:53;;;;;;;15.48;2.40;;;;;;;11.99;100.00;99813.81;5172244;28;20058;-74
2022/09/17 05:06:24;;;;;;;13.25;2.33;;;;;;;11.94;100.00;99812.41;5168625;28;20030;-74
2022/09/17 05:08:54;;;;;;;17.92;2.67;;;;;;;11.94;100.00;99817.66;5171097;28;20037;-74
2022/09/17 05:11:25;;;;;;;10.98;2.15;;;;;;;11.98;100.00;99814.75;5167028;28;20022;-74
2022/09/17 05:13:55;;;;;;;19.13;2.65;;;;;;;11.89;100.00;99823.13;5168333;28;20046;-74
2022/09/17 05:16:25;;;;;;;12.73;2.30;;;;;;;11.92;100.00;99820.34;5171911;28;20053;-74
2022/09/17 05:18:56;;;;;;;16.33;2.67;;;;;;;12.00;100.00;99814.69;5167466;28;20742;-73
2022/09/17 05:21:27;;;;;;;14.23;2.25;;;;;;;11.96;100.00;99821.84;5171990;28;20029;-73
2022/09/17 05:23:57;;;;;;;17.33;2.38;;;;;;;12.02;100.00;99826.78;5171382;28;20390;-73
2022/09/17 05:26:28;;;;;;;22.10;2.83;;;;;;;11.87;100.00;99829.34;5170537;28;20022;-72
2022/09/17 05:28:58;;;;;;;15.55;2.30;;;;;;;11.89;100.00;99828.34;5172913;28;20546;-73
2022/09/17 05:31:29;;;;;;;17.08;2.63;;;;;;;12.11;100.00;99823.66;5171145;28;20055;-74
2022/09/17 05:34:00;;;;;;;14.15;2.67;;;;;;;12.09;100.00;99825.53;5171341;28;20029;-73
2022/09/17 05:36:30;;;;;;;14.55;2.10;;;;;;;12.17;100.00;99840.81;5168071;28;20893;-74
2022/09/17 05:39:00;;;;;;;12.75;2.15;;;;;;;12.11;100.00;99839.38;5170606;28;20022;-74
2022/09/17 05:41:30;;;;;;;15.73;2.35;;;;;;;12.08;100.00;99836.94;5165779;28;20482;-74
2022/09/17 05:44:01;;;;;;;14.90;1.98;;;;;;;12.05;100.00;99839.72;5169530;28;20033;-74
2022/09/17 05:46:31;;;;;;;14.02;2.30;;;;;;;11.96;100.00;99834.13;5170491;28;20076;-73
2022/09/17 05:49:03;;;;;;;14.77;2.15;;;;;;;12.00;100.00;99835.66;5167455;28;20396;-74
2022/09/17 05:51:33;;;;;;;18.30;2.40;;;;;;;11.85;100.00;99837.31;5171113;28;20026;-74
2022/09/17 05:54:03;;;;;;;15.45;2.28;;;;;;;11.79;100.00;99840.22;5168976;28;20023;-74
2022/09/17 05:56:34;;;;;;;14.10;2.35;;;;;;;11.85;100.00;99855.63;5169949;28;20046;-74
2022/09/17 05:59:04;;;;;;;18.50;2.30;;;;;;;11.87;100.00;99848.53;5170682;28;20037;-74
2022/09/17 06:01:34;;;;;;;14.70;2.50;;;;;;;11.90;100.00;99843.13;5171698;28;20498;-73
2022/09/17 06:04:05;;;;;;;15.57;2.40;;;;;;;11.86;100.00;99852.09;5170881;28;20022;-75
2022/09/17 06:06:37;;;;;;;17.52;2.50;;;;;;;11.86;100.00;99859.09;5167742;28;20022;-72
2022/09/17 06:09:09;;;;;;;18.48;2.70;;;;;;;11.89;100.00;99853.69;5171131;28;20160;-73
2022/09/17 06:11:39;;;;;;;16.33;2.60;;;;;;;11.95;100.00;99859.44;5168327;28;20083;-73
2022/09/17 06:14:10;;;;;;;13.07;2.55;;;;;;;11.95;100.00;99862.06;5170574;22;20031;-74
2022/09/17 06:16:40;;;;;;;17.20;2.10;;;;;;;12.05;100.00;99865.91;5165686;28;20026;-73
2022/09/17 06:19:10;;;;;;;14.40;2.25;;;;;;;12.15;100.00;99863.63;5172545;28;20053;-71
2022/09/17 06:21:40;;;;;;;11.50;2.25;;;;;;;12.15;100.00;99868.88;5170392;28;20025;-74
2022/09/17 06:24:11;;;;;;;13.63;2.22;;;;;;;12.16;100.00;99874.03;5170562;28;20065;-72
2022/09/17 06:26:41;;;;;;;20.83;2.58;;;;;;;12.20;100.00;99875.56;5165553;28;20641;-74
2022/09/17 06:29:14;;;;;;;13.05;2.22;;;;;;;12.32;100.00;99868.81;5211424;22;20045;-73
2022/09/17 06:31:44;;;;;;;17.98;2.08;;;;;;;12.40;100.00;99867.47;5186670;28;20447;-74
2022/09/17 06:34:15;;;;;;;14.10;2.80;;;;;;;12.39;100.00;99878.03;5186817;28;20025;-74
2022/09/17 06:36:47;;;;;;;14.40;2.45;;;;;;;12.32;100.00;99869.66;5183750;28;20053;-74
2022/09/17 06:39:17;;;;;;;12.65;2.22;;;;;;;12.31;100.00;99873.19;5176348;28;20576;-74
2022/09/17 06:41:47;;;;;;;19.58;2.53;;;;;;;12.37;100.00;99872.91;5169105;28;20124;-74
2022/09/17 06:44:17;;;;;;;19.48;3.00;;;;;;;12.37;100.00;99878.13;5164259;28;20030;-74
2022/09/17 06:46:49;;;;;;;11.75;1.95;;;;;;;12.32;100.00;99880.13;5167861;28;20109;-74
2022/09/17 06:49:21;;;;;;;16.33;2.58;;;;;;;12.46;100.00;99877.63;5166302;28;20031;-74
2022/09/17 06:51:51;;;;;;;14.00;2.22;;;;;;;12.69;100.00;99873.75;5168542;28;20045;-74
2022/09/17 06:54:21;;;;;;;14.60;2.22;;;;;;;12.90;100.00;99876.03;5164305;28;20030;-74
2022/09/17 06:56:52;;;;;;;18.38;2.10;;;;;;;12.98;100.00;99873.00;5165537;28;20601;-73
2022/09/17 06:59:22;;;;;;;13.73;2.05;;;;;;;13.00;100.00;99874.59;5166783;28;20049;-73
2022/09/17 07:01:52;;;;;;;16.83;2.35;;;;;;;13.21;100.00;99876.03;5166390;28;20030;-74
2022/09/17 07:04:23;;;;;;;13.77;2.17;;;;;;;13.01;100.00;99877.16;5170204;28;20032;-75
2022/09/17 07:06:53;;;;;;;16.38;1.85;;;;;;;13.01;100.00;99876.28;5169608;28;20022;-74
2022/09/17 07:09:24;;;;;;;13.63;2.13;;;;;;;13.13;100.00;99870.34;5171560;28;20109;-74
2022/09/17 07:11:54;;;;;;;14.93;2.42;;;;;;;13.31;98.97;99880.66;5172671;28;20022;-73
2022/09/17 07:14:24;;;;;;;16.42;2.58;;;;;;;13.41;98.55;99873.09;5171720;28;20029;-73
2022/09/17 07:16:55;;;;;;;12.93;2.00;;;;;;;13.85;95.30;99871.28;5168527;28;20076;-73
2022/09/17 07:19:25;;;;;;;12.88;2.05;;;;;;;13.96;95.19;99866.25;5170974;28;20033;-74
2022/09/17 07:21:55;;;;;;;17.92;2.20;;;;;;;14.09;92.74;99864.56;5171157;28;20026;-74
2022/09/17 07:24:25;;;;;;;12.35;1.98;;;;;;;14.53;90.61;99865.31;5172398;28;20025;-74
2022/09/17 07:26:56;;;;;;;11.90;1.95;;;;;;;14.30;90.29;99860.66;5170890;28;20034;-73
2022/09/17 07:29:27;;;;;;;15.68;2.00;;;;;;;14.49;90.20;99863.81;5169108;28;20463;-74
2022/09/17 07:31:58;;;;;;;20.35;2.60;;;;;;;14.17;90.42;99867.59;5174188;28;20091;-74
2022/09/17 07:34:28;;;;;;;14.27;2.58;;;;;;;14.23;90.80;99864.63;5170403;28;20084;-74
2022/09/17 07:36:59;;;;;;;18.48;2.38;;;;;;;14.08;90.84;99876.03;5172869;28;20025;-74
2022/09/17 07:39:29;;;;;;;13.63;2.22;;;;;;;14.15;90.91;99878.19;5169697;28;20041;-74
2022/09/17 07:41:59;;;;;;;19.52;2.38;;;;;;;13.68;91.29;99874.94;5172733;28;20480;-73
2022/09/17 07:44:30;;;;;;;13.15;2.10;;;;;;;14.66;88.71;99879.38;5172000;28;20034;-74
2022/09/17 07:47:00;;;;;;;15.70;2.10;;;;;;;15.13;86.60;99872.75;5168917;28;20036;-74
2022/09/17 07:49:30;;;;;;;13.38;2.33;;;;;;;16.39;80.56;99879.94;5172120;28;20052;-75
2022/09/17 07:52:05;;;;;;;10.20;2.08;;;;;;;17.82;76.35;99857.78;5169952;28;20021;-75
2022/09/17 07:54:38;;;;;;;10.73;2.03;;;;;;;18.49;72.78;99859.56;5170317;28;20037;-75
2022/09/17 07:57:08;;;;;;;12.35;2.00;;;;;;;18.65;71.86;99866.16;5170784;28;20026;-75
2022/09/17 07:59:38;;;;;;;11.63;2.00;;;;;;;20.03;67.92;99865.16;5171416;28;20577;-75
2022/09/17 08:02:13;;;;;;;8.43;2.03;;;;;;;19.27;67.40;99860.13;5170954;28;20110;-75
2022/09/17 08:04:43;;;;;;;9.13;2.17;;;;;;;20.19;67.54;99861.09;5171457;28;20289;-75
2022/09/17 08:07:13;;;;;;;9.07;1.67;;;;;;;19.46;68.20;99870.03;5169549;28;20081;-74
2022/09/17 08:09:43;;;;;;;12.00;2.17;;;;;;;19.75;66.50;99869.28;5169813;28;20046;-73
2022/09/17 08:12:14;;;;;;;12.53;2.07;;;;;;;21.17;63.21;99866.44;5170736;28;20034;-72
2022/09/17 08:14:44;;;;;;;8.73;2.10;;;;;;;21.39;63.58;99867.00;5172583;28;20293;-72
2022/09/17 08:17:14;;;;;;;8.73;1.93;;;;;;;21.15;62.86;99860.41;5169715;28;20038;-72
2022/09/17 08:19:45;;;;;;;8.27;1.80;;;;;;;20.75;63.52;99864.94;5165159;28;20790;-71
2022/09/17 08:22:15;;;;;;;10.50;1.98;;;;;;;20.32;63.74;99864.34;5163943;28;20097;-71
2022/09/17 08:24:47;;;;;;;6.35;1.80;;;;;;;20.35;63.40;99869.41;5171512;28;20022;-72
2022/09/17 08:27:17;;;;;;;8.23;1.80;;;;;;;20.46;63.37;99865.81;5167792;28;20029;-72
2022/09/17 08:29:47;;;;;;;9.88;2.05;;;;;;;21.67;62.31;99860.03;5165393;28;20040;-72
2022/09/17 08:32:18;;;;;;;7.20;1.85;;;;;;;20.47;63.94;99865.66;5170410;28;20108;-71
2022/09/17 08:34:48;;;;;;;8.33;1.83;;;;;;;21.07;62.13;99870.91;5171075;28;20037;-72
2022/09/17 08:37:19;;;;;;;10.60;2.30;;;;;;;21.49;61.91;99867.00;5167191;28;20272;-72
2022/09/17 08:39:49;;;;;;;7.32;1.67;;;;;;;21.11;61.86;99869.66;5169148;28;20026;-72
2022/09/17 08:42:22;;;;;;;9.00;2.07;;;;;;;22.01;60.85;99861.25;5170814;28;20110;-72
2022/09/17 08:44:55;;;;;;;8.77;2.00;;;;;;;20.57;63.16;99874.53;5169101;28;20305;-71
2022/09/17 08:47:29;;;;;;;10.77;2.08;;;;;;;21.36;61.88;99855.81;5167365;28;20104;-72
2022/09/17 08:50:03;;;;;;;10.38;1.88;;;;;;;21.63;59.88;99858.66;5169735;28;20034;-70
2022/09/17 08:52:52;;;;;;;11.13;1.92;;;;;;;20.44;60.96;99852.66;5168362;28;20026;-72
2022/09/17 08:55:53;;;;;;;10.82;2.13;;;;;;;20.48;61.91;99861.22;5169779;28;20022;-74
2022/09/17 08:59:00;;;;;;;14.00;2.30;;;;;;;20.36;62.57;99852.50;5165239;28;20072;-74
2022/09/17 09:01:59;;;;;;;9.85;2.13;;;;;;;19.40;63.04;99857.28;5149334;28;20562;-74
2022/09/17 09:04:55;;;;;;;14.00;2.45;;;;;;;19.14;63.75;99859.41;5168852;28;20038;-73
2022/09/17 09:07:30;;;;;;;8.25;1.75;;;;;;;20.16;63.30;99850.72;5167222;28;20018;-73
2022/09/17 09:10:12;;;;;;;8.48;2.35;;;;;;;19.82;62.71;99859.00;5168039;28;20040;-74
2022/09/17 09:12:44;;;;;;;10.15;2.05;;;;;;;19.35;63.32;99847.09;5171746;28;20033;-73
2022/09/17 09:15:42;;;;;;;9.43;2.08;;;;;;;19.05;65.17;99844.28;5171125;28;20018;-72
2022/09/17 09:18:20;;;;;;;9.98;1.75;;;;;;;19.25;65.39;99843.50;5164786;28;20085;-73
2022/09/17 09:21:20;;;;;;;14.88;2.53;;;;;;;19.12;64.67;99837.50;5169357;28;20037;-74
2022/09/17 09:24:00;;;;;;;10.23;1.70;;;;;;;18.35;66.69;99846.56;5171521;28;20040;-73
2022/09/17 09:26:46;;;;;;;12.43;2.10;;;;;;;17.82;67.42;99844.56;5168282;28;20096;-72
2022/09/17 09:29:22;;;;;;;11.60;2.08;;;;;;;17.69;68.86;99851.75;5168452;28;20446;-73
2022/09/17 09:31:52;;;;;;;14.05;2.47;;;;;;;17.75;68.37;99856.56;5171520;28;20033;-74
2022/09/17 09:34:26;;;;;;;14.57;2.40;;;;;;;17.29;68.70;99855.69;5167975;28;20032;-73
2022/09/17 09:37:11;;;;;;;12.30;2.13;;;;;;;17.12;69.91;99859.53;5169300;28;20273;-74
2022/09/17 09:39:42;;;;;;;14.38;2.13;;;;;;;17.01;71.27;99848.09;5168598;28;20029;-73
2022/09/17 09:42:18;;;;;;;12.23;1.83;;;;;;;16.96;70.61;99858.16;5169207;28;20040;-74
2022/09/17 09:44:48;;;;;;;14.65;1.95;;;;;;;17.51;68.92;99850.50;5170210;28;20041;-73
2022/09/17 09:47:30;;;;;;;15.70;2.05;;;;;;;17.19;69.19;99867.88;5168470;28;20034;-73
2022/09/17 09:50:19;;;;;;;13.77;1.80;;;;;;;17.03;69.72;99862.00;5166765;28;20109;-73
2022/09/17 09:53:18;;;;;;;11.93;1.70;;;;;;;17.32;69.03;99863.38;5168340;28;20076;-72
2022/09/17 09:55:55;;;;;;;13.27;2.15;;;;;;;17.25;68.34;99867.41;5162285;28;20026;-73
2022/09/17 09:58:37;;;;;;;16.27;2.38;;;;;;;17.25;68.31;99862.13;5161945;28;20034;-73
2022/09/17 10:01:16;;;;;;;17.70;2.20;;;;;;;17.30;69.59;99860.00;5170898;28;20392;-73
2022/09/17 10:03:50;;;;;;;14.50;1.98;;;;;;;17.68;67.95;99855.34;5166019;28;20068;-73
2022/09/17 10:06:21;;;;;;;14.20;2.33;;;;;;;16.97;70.38;99858.03;5166659;28;20022;-73
2022/09/17 10:08:54;;;;;;;13.85;2.28;;;;;;;17.30;69.60;99855.53;5166726;28;20042;-73
2022/09/17 10:11:34;;;;;;;11.57;1.85;;;;;;;16.85;69.01;99863.34;5170795;28;20030;-73
2022/09/17 10:14:23;;;;;;;15.02;1.98;;;;;;;16.85;68.20;99869.50;5168450;28;20044;-74
2022/09/17 10:17:19;;;;;;;9.80;2.03;;;;;;;17.08;67.74;99878.34;5166893;28;20396;-73
2022/09/17 10:19:58;;;;;;;14.00;2.05;;;;;;;16.88;69.31;99876.31;5156923;28;20095;-72
2022/09/17 10:22:35;;;;;;;14.70;2.15;;;;;;;16.98;68.56;99880.00;5164354;28;20484;-73
2022/09/17 10:25:22;;;;;;;13.00;1.88;;;;;;;17.04;67.89;99868.97;5171563;28;20589;-73
2022/09/17 10:27:52;;;;;;;10.55;1.95;;;;;;;16.91;67.41;99870.81;5166994;28;20127;-72
2022/09/17 10:30:24;;;;;;;15.48;2.10;;;;;;;16.94;66.87;99867.97;5167472;28;20487;-72
2022/09/17 10:33:16;;;;;;;12.57;1.92;;;;;;;16.89;67.36;99870.09;5166156;28;20022;-72
2022/09/17 10:36:03;;;;;;;9.25;1.80;;;;;;;17.05;67.65;99868.03;5167691;28;20022;-72
2022/09/17 10:38:39;;;;;;;9.00;1.58;;;;;;;17.26;66.60;99869.09;5163939;28;20089;-73
2022/09/17 10:41:12;;;;;;;11.95;2.00;;;;;;;17.46;65.88;99860.56;5165495;28;20134;-73
2022/09/17 10:43:43;;;;;;;16.98;2.53;;;;;;;17.75;65.94;99867.13;5164916;28;20042;-73
2022/09/17 10:46:18;;;;;;;11.10;1.67;;;;;;;17.65;66.68;99866.97;5167689;28;20391;-73
2022/09/17 10:49:09;;;;;;;8.73;1.70;;;;;;;17.43;67.11;99859.00;5165294;28;20053;-71
2022/09/17 10:51:40;;;;;;;9.73;1.90;;;;;;;17.44;66.84;99862.47;5167449;28;20554;-73
2022/09/17 10:54:39;;;;;;;7.97;1.50;;;;;;;17.11;65.74;99859.69;5168095;28;20038;-72
2022/09/17 10:57:20;;;;;;;10.52;1.67;;;;;;;16.92;65.77;99860.16;5167213;28;20026;-73
2022/09/17 11:00:08;;;;;;;11.90;1.58;;;;;;;16.57;67.30;99861.00;5164831;28;20069;-73
2022/09/17 11:02:56;;;;;;;5.68;1.40;;;;;;;16.73;66.81;99853.69;5163480;28;20022;-73
2022/09/17 11:06:02;;;;;;;11.30;1.70;;;;;;;16.92;67.30;99859.31;5168436;28;20564;-72
2022/09/17 11:08:50;;;;;;;11.40;2.00;;;;;;;17.02;66.98;99860.34;5165520;28;20109;-72
2022/09/17 11:11:32;;;;;;;10.70;2.20;;;;;;;16.40;66.42;99861.34;5167747;28;20441;-73
2022/09/17 11:14:25;;;;;;;8.18;1.75;;;;;;;16.25;68.01;99857.13;5162820;28;20089;-73
2022/09/17 11:17:17;;;;;;;11.35;1.90;;;;;;;16.62;67.60;99861.53;5160240;28;20121;-73
2022/09/17 11:19:52;;;;;;;15.38;2.00;;;;;;;16.92;67.75;99859.31;5164121;28;20129;-71
2022/09/17 11:22:38;;;;;;;12.10;1.63;;;;;;;17.12;64.91;99864.81;5163514;28;20571;-73
2022/09/17 11:25:36;;;;;;;10.73;1.75;;;;;;;16.97;64.14;99852.75;5164187;28;20085;-73
2022/09/17 11:28:09;;;;;;;9.48;1.65;;;;;;;16.79;62.74;99867.28;5166007;28;20085;-71
2022/09/17 11:30:55;;;;;;;6.82;1.65;;;;;;;17.08;62.33;99859.88;5164439;28;20558;-73
2022/09/17 11:34:13;;;;;;;8.03;1.57;;;;;;;17.24;61.60;99858.66;5166372;28;20026;-72
2022/09/17 11:37:02;;;;;;;8.98;1.48;;;;;;;17.17;61.67;99854.75;5159417;28;20038;-72
2022/09/17 11:39:58;;;;;;;10.82;1.60;;;;;;;17.23;61.90;99850.81;5164792;28;20026;-73
2022/09/17 11:42:42;;;;;;;7.55;1.30;;;;;;;16.97;61.41;99844.81;5156023;28;20607;-73
2022/09/17 11:45:19;;;;;;;9.27;1.52;;;;;;;17.19;62.97;99846.72;5167757;28;20061;-72
2022/09/17 11:48:02;;;;;;;7.50;1.65;;;;;;;17.21;60.87;99842.19;5166322;28;20550;-72
2022/09/17 11:50:41;;;;;;;7.32;1.30;;;;;;;16.85;60.51;99836.97;5168161;28;20073;-72
2022/09/17 11:53:29;;;;;;;6.95;1.50;;;;;;;16.82;61.37;99831.91;5168420;28;20088;-73
2022/09/17 11:56:09;;;;;;;6.95;1.40;;;;;;;16.75;60.82;99830.66;5169565;28;20695;-73
2022/09/17 11:59:00;;;;;;;9.60;1.80;;;;;;;16.66;61.07;99839.25;5168320;28;20522;-72
2022/09/17 12:01:37;;;;;;;11.85;1.42;;;;;;;16.34;61.55;99843.31;5168952;28;20046;-73
2022/09/17 12:04:39;;;;;;;8.38;1.60;;;;;;;16.44;61.54;99847.03;5170820;28;20025;-72